Time;durP1;ratioP1;P1;durP2;ratioP2;P2;SDS_P1;SDS_P2;PMS_P1;PMS_P2;Temp;Humidity;BMP_temperature;BMP_pressure;BME280_temperature;BME280_humidity;BME280_pressure;Samples;Min_cycle;Max_cycle;Signal;HPM_P1;HPM_P2
2022/01/22 00:02:21;;;;;;;;;6.25;6.25;;;;;6.69;73.79;103484.78;5092090;27;45391;-70
2022/01/22 00:04:46;;;;;;;;;12.25;7.75;;;;;6.69;73.83;103484.78;5104286;27;47343;-70
2022/01/22 00:07:11;;;;;;;;;12.00;7.25;;;;;6.67;73.78;103478.63;5109695;27;45836;-70
2022/01/22 00:09:39;;;;;;;;;9.50;5.75;;;;;6.71;73.69;103480.47;5097129;27;45387;-70
2022/01/22 00:12:08;;;;;;;;;10.75;6.00;;;;;6.70;73.75;103470.84;5094773;27;45369;-70
2022/01/22 00:14:34;;;;;;;;;4.50;4.50;;;;;6.74;74.11;103472.69;5093284;27;46588;-70
2022/01/22 00:17:01;;;;;;;;;5.00;5.00;;;;;6.72;73.46;103468.25;5093170;27;45977;-70
2022/01/22 00:19:28;;;;;;;;;5.50;5.00;;;;;6.75;73.75;103466.59;5104460;27;45487;-70
2022/01/22 00:21:54;;;;;;;;;9.25;8.00;;;;;6.76;73.81;103470.09;5095199;27;45336;-70
2022/01/22 00:24:20;;;;;;;;;5.50;5.00;;;;;6.78;73.71;103465.75;5073728;27;47157;-70
2022/01/22 00:26:46;;;;;;;;;10.50;5.75;;;;;6.76;73.73;103464.84;5081856;27;45616;-70
2022/01/22 00:29:12;;;;;;;;;9.00;8.25;;;;;6.76;73.65;103460.50;5084042;27;45383;-70
2022/01/22 00:31:39;;;;;;;;;9.25;5.50;;;;;6.80;73.39;103466.66;5095025;27;45447;-70
2022/01/22 00:34:05;;;;;;;;;6.50;5.00;;;;;6.82;73.35;103471.91;5090871;27;45490;-70
2022/01/22 00:36:31;;;;;;;;;8.50;5.75;;;;;6.81;73.57;103463.19;5092353;27;45550;-70
2022/01/22 00:38:56;;;;;;;;;13.75;8.50;;;;;6.82;73.33;103469.31;5094344;27;45822;-70
2022/01/22 00:41:22;;;;;;;;;7.50;6.00;;;;;6.80;73.42;103454.47;5106666;27;45393;-70
2022/01/22 00:43:48;;;;;;;;;8.00;8.00;;;;;6.82;73.20;103446.66;5094186;27;46001;-70
2022/01/22 00:46:13;;;;;;;;;11.75;8.00;;;;;6.84;73.25;103452.81;5097363;27;45963;-70
2022/01/22 00:48:39;;;;;;;;;12.50;8.75;;;;;6.86;73.48;103445.84;5095184;27;45640;-70
2022/01/22 00:51:04;;;;;;;;;10.50;6.75;;;;;6.86;73.26;103447.59;5101680;27;45463;-70
2022/01/22 00:53:29;;;;;;;;;7.50;6.00;;;;;6.80;73.18;103445.75;5089996;27;47889;-70
2022/01/22 00:55:55;;;;;;;;;8.00;7.25;;;;;6.87;73.18;103458.06;5101429;27;45487;-70
2022/01/22 00:58:20;;;;;;;;;6.50;5.00;;;;;6.89;73.23;103463.31;5098154;27;45427;-70
2022/01/22 01:00:46;;;;;;;;;5.25;5.25;;;;;6.88;73.48;103448.47;5081841;27;45684;-70
2022/01/22 01:03:11;;;;;;;;;9.50;8.00;;;;;6.86;73.53;103448.47;5106466;27;45650;-70
2022/01/22 01:05:36;;;;;;;;;6.75;6.00;;;;;6.91;73.64;103448.53;5096252;27;45443;-70
2022/01/22 01:08:03;;;;;;;;;8.50;8.50;;;;;6.91;73.72;103451.16;5109316;27;45457;-70
2022/01/22 01:10:29;;;;;;;;;6.25;5.00;;;;;6.92;73.86;103452.91;5100244;27;45546;-70
2022/01/22 01:12:55;;;;;;;;;7.25;6.25;;;;;6.92;73.30;103448.56;5095750;27;46667;-70
2022/01/22 01:15:43;;;;;;;;;8.50;7.00;;;;;6.93;73.75;103452.06;5096436;27;45482;-70
2022/01/22 01:34:10;;;;;;;;;10.00;7.75;;;;;6.94;72.72;103439.03;5104047;27;45457;-70
2022/01/22 01:36:36;;;;;;;;;7.25;7.25;;;;;6.95;72.89;103453.84;5090181;27;45403;-70
2022/01/22 01:39:05;;;;;;;;;7.25;5.75;;;;;6.93;72.75;103439.84;5097388;27;45589;-70
2022/01/22 01:44:10;;;;;;;;;10.00;6.75;;;;;7.00;72.86;103453.94;5093737;27;45936;-70
2022/01/22 01:46:42;;;;;;;;;6.00;6.00;;;;;7.00;72.40;103446.06;5099089;27;45652;-70
2022/01/22 01:49:08;;;;;;;;;9.75;8.75;;;;;6.97;72.78;103435.56;5098401;27;45452;-70
2022/01/22 01:51:34;;;;;;;;;10.25;6.50;;;;;7.01;72.50;103443.47;5098482;27;45466;-70
2022/01/22 01:54:14;;;;;;;;;9.50;9.25;;;;;6.98;72.94;103439.94;5095262;27;45506;-70
2022/01/22 01:59:23;;;;;;;;;9.00;5.00;;;;;6.93;72.81;103415.44;5080502;27;45585;-70
2022/01/22 02:01:48;;;;;;;;;7.25;7.25;;;;;7.01;73.02;103450.44;5093834;27;45486;-70
2022/01/22 02:04:14;;;;;;;;;6.75;5.00;;;;;6.99;72.65;103441.69;5095745;27;46127;-70
2022/01/22 02:06:40;;;;;;;;;6.00;6.00;;;;;7.00;72.70;103444.34;5097968;27;45514;-70
2022/01/22 02:09:08;;;;;;;;;6.00;6.00;;;;;7.01;72.79;103447.84;5104611;27;45384;-70
2022/01/22 02:11:35;;;;;;;;;9.75;9.00;;;;;7.05;72.56;103449.66;5095151;27;45659;-70
2022/01/22 02:14:07;;;;;;;;;9.25;5.25;;;;;6.90;72.91;103413.69;5094838;27;46295;-70
2022/01/22 02:24:51;;;;;;;;;7.50;5.75;;;;;7.09;72.63;103429.63;5098067;27;45592;-70
2022/01/22 02:27:18;;;;;;;;;8.00;5.25;;;;;7.11;72.99;103436.66;5094494;27;45898;-70
2022/01/22 02:29:44;;;;;;;;;6.25;5.00;;;;;7.09;72.66;103427.88;5095514;27;45610;-70
2022/01/22 02:34:55;;;;;;;;;10.00;7.50;;;;;7.12;72.75;103432.31;5091702;27;46086;-70
2022/01/22 02:37:23;;;;;;;;;5.75;4.50;;;;;7.11;72.76;103420.09;5095887;27;45348;-70
2022/01/22 02:40:03;;;;;;;;;9.75;7.00;;;;;7.10;72.61;103423.53;5100691;27;45379;-70
2022/01/22 02:42:32;;;;;;;;;8.25;5.75;;;;;7.12;72.76;103416.63;5088893;27;45415;-70
2022/01/22 02:44:57;;;;;;;;;8.75;8.25;;;;;7.09;72.75;103416.56;5094570;27;46466;-70
2022/01/22 02:47:23;;;;;;;;;9.25;8.50;;;;;7.12;72.73;103421.84;5103590;27;45450;-70
2022/01/22 02:49:49;;;;;;;;;11.00;9.00;;;;;7.11;72.72;103415.72;5103307;27;45413;-70
2022/01/22 02:52:17;;;;;;;;;8.25;7.00;;;;;7.15;72.60;103414.03;5094808;27;45374;-70
2022/01/22 02:54:43;;;;;;;;;9.75;6.50;;;;;7.16;72.55;103415.81;5094020;27;47384;-70
2022/01/22 02:57:09;;;;;;;;;11.25;8.00;;;;;7.16;72.46;103410.56;5099337;27;45889;-70
2022/01/22 02:59:35;;;;;;;;;10.75;9.00;;;;;7.17;72.69;103414.94;5096748;27;45341;-70
2022/01/22 03:02:02;;;;;;;;;11.75;11.00;;;;;7.16;72.75;103414.06;5094377;27;45387;-70
2022/01/22 03:04:27;;;;;;;;;35.00;27.75;;;;;7.17;72.37;103414.94;5095664;27;45391;-70
2022/01/22 03:06:53;;;;;;;;;39.25;29.75;;;;;7.19;72.26;103419.31;5100740;27;49488;-70
2022/01/22 03:09:26;;;;;;;;;48.50;38.75;;;;;7.20;72.42;103414.97;5103047;27;45383;-70
2022/01/22 03:17:27;;;;;;;;;0.00;0.00;;;;;7.17;72.17;103389.66;5094215;27;45368;-70
2022/01/22 03:22:19;;;;;;;;;14.00;12.25;;;;;7.21;72.33;103416.75;5094565;27;45230;-70
2022/01/22 03:27:30;;;;;;;;;14.50;11.75;;;;;7.19;72.21;103423.69;5090469;27;45637;-70
2022/01/22 03:29:56;;;;;;;;;9.75;8.50;;;;;7.15;72.41;103408.78;5075098;27;45777;-70
2022/01/22 03:32:25;;;;;;;;;7.25;7.25;;;;;7.15;72.35;103412.31;5093136;27;45479;-70
2022/01/22 03:34:59;;;;;;;;;10.00;10.00;;;;;7.18;72.10;103421.91;5096117;27;45538;-70
2022/01/22 03:37:25;;;;;;;;;13.50;8.00;;;;;7.14;72.19;103421.00;5093733;27;45836;-70
2022/01/22 03:39:51;;;;;;;;;11.00;9.00;;;;;7.19;72.41;103434.13;5093750;27;45457;-70
2022/01/22 03:42:16;;;;;;;;;11.25;9.25;;;;;7.16;72.69;103431.50;5093881;27;45361;-70
2022/01/22 03:44:42;;;;;;;;;11.50;10.25;;;;;7.19;72.78;103434.13;5091875;27;46494;-70
2022/01/22 03:47:07;;;;;;;;;12.50;10.25;;;;;7.21;72.11;103435.06;5092911;27;45367;-70
2022/01/22 03:49:33;;;;;;;;;6.75;6.00;;;;;7.21;72.61;103432.44;5094705;27;45437;-70
2022/01/22 03:51:58;;;;;;;;;14.50;10.00;;;;;7.19;72.44;103429.78;5093481;27;47237;-70
2022/01/22 03:54:24;;;;;;;;;8.75;6.75;;;;;7.20;72.12;103428.03;5093604;27;45503;-70
2022/01/22 03:56:51;;;;;;;;;10.00;10.00;;;;;7.20;72.41;103436.75;5100061;27;45467;-70
2022/01/22 03:59:16;;;;;;;;;9.00;8.00;;;;;7.19;72.34;103424.56;5093335;27;45410;-70
2022/01/22 04:04:24;;;;;;;;;10.00;7.00;;;;;7.21;72.01;103430.69;5092776;27;46180;-70
2022/01/22 04:09:22;;;;;;;;;10.00;8.75;;;;;7.22;72.18;103424.59;5093458;27;45705;-70
2022/01/22 04:11:48;;;;;;;;;10.50;7.50;;;;;7.21;72.40;103422.84;5093264;27;45546;-70
2022/01/22 04:14:22;;;;;;;;;8.50;6.50;;;;;7.22;72.38;103424.59;5093535;27;45451;-70
2022/01/22 04:17:03;;;;;;;;;9.00;8.00;;;;;7.21;72.28;103422.84;5107127;27;45458;-70
2022/01/22 04:24:56;;;;;;;;;10.00;9.00;;;;;7.17;72.16;103414.94;5099872;27;45350;-70
2022/01/22 04:27:27;;;;;;;;;10.75;9.00;;;;;7.19;72.22;103411.47;5090997;27;45458;-70
2022/01/22 04:29:54;;;;;;;;;8.00;7.00;;;;;7.19;72.31;103413.22;5093753;27;45465;-71
2022/01/22 04:32:21;;;;;;;;;12.00;7.50;;;;;7.18;72.30;103406.22;5097210;27;45414;-70
2022/01/22 04:34:46;;;;;;;;;11.50;6.75;;;;;7.18;72.53;103411.47;5098338;27;46696;-70
2022/01/22 04:37:12;;;;;;;;;12.25;9.00;;;;;7.17;72.16;103415.81;5095498;27;45519;-70
2022/01/22 04:39:38;;;;;;;;;14.00;10.25;;;;;7.15;72.08;103407.09;5096341;27;45491;-70
2022/01/22 04:42:03;;;;;;;;;11.25;9.00;;;;;7.15;72.48;103411.41;5087422;27;45292;-70
2022/01/22 04:44:34;;;;;;;;;8.25;7.00;;;;;7.15;72.37;103408.78;5076277;27;46294;-71
2022/01/22 04:47:14;;;;;;;;;14.00;8.25;;;;;7.14;72.21;103410.53;5112593;27;45965;-70
2022/01/22 04:52:36;;;;;;;;;14.50;12.00;;;;;7.13;72.20;103410.53;5098311;27;45387;-70
2022/01/22 04:55:03;;;;;;;;;9.50;9.50;;;;;7.13;72.66;103419.25;5097224;27;46556;-70
2022/01/22 04:57:31;;;;;;;;;13.50;10.75;;;;;7.11;72.23;103409.63;5083162;27;46937;-70
2022/01/22 04:59:56;;;;;;;;;18.75;11.25;;;;;7.13;72.29;103415.75;5095538;27;45416;-70
2022/01/22 05:02:22;;;;;;;;;13.75;11.25;;;;;7.13;72.67;103410.53;5077331;27;45387;-70
2022/01/22 05:04:48;;;;;;;;;14.75;10.75;;;;;7.14;72.68;103420.13;5097209;27;45608;-70
2022/01/22 05:07:14;;;;;;;;;14.25;11.00;;;;;7.12;72.69;103414.88;5105492;27;45781;-70
2022/01/22 05:09:39;;;;;;;;;14.25;12.50;;;;;7.10;72.39;103424.44;5100039;27;45610;-70
2022/01/22 05:12:06;;;;;;;;;18.25;11.00;;;;;7.11;72.72;103420.09;5096059;27;45403;-70
2022/01/22 05:14:32;;;;;;;;;20.75;14.00;;;;;7.13;72.56;103424.47;5090167;27;47155;-70
2022/01/22 05:16:59;;;;;;;;;19.00;14.25;;;;;7.08;72.33;103413.06;5102720;27;45555;-70
2022/01/22 05:20:05;;;;;;;;;18.50;15.50;;;;;7.10;72.47;103420.91;5095962;27;45509;-71
2022/01/22 05:25:02;;;;;;;;;23.50;17.50;;;;;7.07;72.47;103416.53;5097379;27;45508;-70
2022/01/22 05:38:23;;;;;;;;;18.00;13.25;;;;;7.11;72.50;103427.94;5053690;28;45931;-70
2022/01/22 05:40:49;;;;;;;;;24.25;21.00;;;;;7.12;72.71;103434.91;5053487;28;45848;-70
2022/01/22 05:43:15;;;;;;;;;23.50;18.75;;;;;7.10;72.39;103432.28;5077540;27;45492;-71
2022/01/22 05:45:41;;;;;;;;;22.75;17.50;;;;;7.02;72.82;103413.84;5063264;28;45489;-70
2022/01/22 05:48:07;;;;;;;;;26.50;19.00;;;;;7.10;72.43;103434.00;5062142;28;45799;-70
2022/01/22 05:50:37;;;;;;;;;20.50;18.25;;;;;7.09;72.52;103435.72;5053454;28;45469;-70
2022/01/22 05:53:15;;;;;;;;;25.00;19.50;;;;;7.13;72.55;103432.31;5053487;28;45363;-70
2022/01/22 06:01:10;;;;;;;;;25.75;19.00;;;;;7.14;72.40;103441.03;5053807;28;45579;-71
2022/01/22 06:03:36;;;;;;;;;22.00;17.75;;;;;7.13;72.42;103441.91;5059801;27;45560;-70
2022/01/22 06:06:01;;;;;;;;;29.25;21.75;;;;;7.03;72.29;103431.28;5095201;27;45398;-71
2022/01/22 06:08:33;;;;;;;;;26.25;18.00;;;;;7.13;72.24;103447.13;5094857;27;45448;-70
2022/01/22 06:11:06;;;;;;;;;26.25;20.50;;;;;7.06;72.46;103431.34;5097070;27;45459;-71
2022/01/22 06:13:43;;;;;;;;;26.50;20.25;;;;;7.12;72.54;103442.75;5099235;27;45462;-70
2022/01/22 06:16:10;;;;;;;;;24.50;21.50;;;;;7.14;72.29;103452.38;5105992;27;45735;-70
2022/01/22 06:18:35;;;;;;;;;24.00;20.00;;;;;7.15;72.86;103451.53;5082407;27;45785;-70
2022/01/22 06:21:00;;;;;;;;;23.25;20.25;;;;;7.14;72.67;103441.91;5104205;27;45594;-70
2022/01/22 06:23:26;;;;;;;;;20.75;18.50;;;;;7.15;72.79;103448.03;5092815;27;45562;-70
2022/01/22 06:25:51;;;;;;;;;25.25;19.25;;;;;7.08;72.73;103436.59;5106137;27;46025;-70
2022/01/22 06:28:17;;;;;;;;;21.50;17.75;;;;;7.14;72.52;103446.25;5110844;27;45364;-70
2022/01/22 06:30:44;;;;;;;;;29.00;19.00;;;;;7.15;72.68;103442.78;5103004;27;45272;-71
2022/01/22 06:33:09;;;;;;;;;28.50;19.75;;;;;7.17;72.34;103451.56;5102651;27;45260;-71
2022/01/22 06:35:35;;;;;;;;;29.25;21.25;;;;;7.10;72.48;103426.16;5094503;27;46709;-70
2022/01/22 06:38:02;;;;;;;;;28.00;22.75;;;;;7.15;72.62;103435.84;5094637;27;45290;-70
2022/01/22 06:42:53;;;;;;;;;18.75;18.25;;;;;7.15;72.63;103442.78;5096988;27;45400;-70
2022/01/22 06:45:19;;;;;;;;;24.00;19.25;;;;;7.15;72.58;103442.78;5092004;27;46043;-70
2022/01/22 06:47:44;;;;;;;;;29.25;22.00;;;;;7.16;72.60;103448.06;5094438;27;45331;-70
2022/01/22 06:50:10;;;;;;;;;25.75;18.75;;;;;7.14;72.81;103447.16;5104211;27;45583;-70
2022/01/22 06:52:37;;;;;;;;;22.00;19.50;;;;;7.16;72.99;103455.03;5096505;27;45483;-70
2022/01/22 06:55:03;;;;;;;;;27.75;19.25;;;;;7.17;72.94;103455.03;5098242;27;45679;-71
2022/01/22 06:57:28;;;;;;;;;31.25;18.25;;;;;7.18;72.90;103456.81;5103053;27;45434;-70
2022/01/22 06:59:53;;;;;;;;;18.50;16.75;;;;;7.18;72.92;103462.03;5099523;27;45408;-70
2022/01/22 07:02:20;;;;;;;;;21.00;21.00;;;;;7.16;72.75;103455.91;5093285;27;48950;-70
2022/01/22 07:04:45;;;;;;;;;28.00;18.50;;;;;7.19;72.70;103470.75;5106945;27;46293;-71
2022/01/22 07:07:12;;;;;;;;;25.33;22.00;;;;;7.18;72.98;103469.88;5093820;27;45426;-71
2022/01/22 07:09:38;;;;;;;;;30.25;23.75;;;;;7.09;72.96;103440.97;5094205;27;45478;-71
2022/01/22 07:12:05;;;;;;;;;28.50;21.50;;;;;7.21;72.77;103467.31;5093670;27;45557;-71
2022/01/22 07:14:31;;;;;;;;;30.25;22.00;;;;;7.18;72.95;103459.41;5095839;27;45606;-70
2022/01/22 07:16:57;;;;;;;;;31.75;22.50;;;;;7.18;72.59;103461.16;5104061;27;46387;-71
2022/01/22 07:19:22;;;;;;;;;29.75;22.25;;;;;7.12;73.04;103463.69;5104990;27;45351;-71
2022/01/22 07:21:57;;;;;;;;;25.67;21.00;;;;;7.13;72.79;103463.69;5097351;27;45315;-71
2022/01/22 07:24:23;;;;;;;;;29.25;23.00;;;;;7.13;73.25;103458.47;5093046;27;46184;-71
2022/01/22 07:26:52;;;;;;;;;22.00;18.00;;;;;7.10;73.10;103460.16;5108217;27;45515;-71
2022/01/22 07:29:17;;;;;;;;;23.25;19.50;;;;;7.12;73.15;103463.69;5100934;27;45690;-71
2022/01/22 07:31:43;;;;;;;;;32.50;22.25;;;;;7.15;73.17;103469.84;5102718;27;45510;-70
2022/01/22 07:34:08;;;;;;;;;29.75;26.25;;;;;7.19;72.81;103475.97;5093047;27;46403;-70
2022/01/22 07:36:33;;;;;;;;;35.75;24.50;;;;;7.19;72.80;103468.13;5097444;27;45473;-70
2022/01/22 07:38:59;;;;;;;;;26.50;22.00;;;;;7.20;73.28;103475.13;5106118;27;45430;-70
2022/01/22 07:41:25;;;;;;;;;32.75;28.75;;;;;7.21;73.34;103474.28;5104980;27;45654;-70
2022/01/22 07:43:52;;;;;;;;;33.00;23.75;;;;;7.21;72.85;103463.81;5110675;27;46424;-71
2022/01/22 07:46:17;;;;;;;;;29.75;24.75;;;;;7.25;72.96;103482.19;5098011;27;45460;-70
2022/01/22 07:48:42;;;;;;;;;30.50;27.00;;;;;7.24;73.29;103485.66;5105551;27;45653;-72
2022/01/22 07:51:08;;;;;;;;;25.25;22.25;;;;;7.26;73.18;103470.88;5096395;27;45217;-72
2022/01/22 07:53:33;;;;;;;;;25.50;17.75;;;;;7.27;73.17;103472.63;5104349;27;46642;-73
2022/01/22 07:55:58;;;;;;;;;33.75;23.25;;;;;7.26;73.04;103470.88;5103098;27;45509;-74
2022/01/22 07:58:24;;;;;;;;;27.00;21.50;;;;;7.17;73.02;103475.09;5108158;27;45497;-76
2022/01/22 08:00:49;;;;;;;;;33.50;30.00;;;;;7.29;72.96;103484.00;5100657;27;45427;-72
2022/01/22 08:03:14;;;;;;;;;29.75;23.00;;;;;7.33;72.96;103485.78;5100397;27;46387;-71
2022/01/22 08:05:40;;;;;;;;;30.00;23.75;;;;;7.33;73.13;103488.41;5100060;27;45396;-74
2022/01/22 08:08:05;;;;;;;;;33.50;27.00;;;;;7.32;72.94;103484.03;5100223;27;45308;-71
2022/01/22 08:10:31;;;;;;;;;37.00;25.25;;;;;7.19;72.80;103474.25;5099797;27;45514;-71
2022/01/22 08:12:57;;;;;;;;;33.75;27.00;;;;;7.30;72.70;103501.44;5092721;27;45441;-71
2022/01/22 08:15:23;;;;;;;;;19.50;18.25;;;;;7.34;72.91;103502.38;5095194;27;45436;-71
2022/01/22 08:17:48;;;;;;;;;30.25;26.00;;;;;7.37;73.05;103504.16;5102921;27;45370;-71
2022/01/22 08:20:16;;;;;;;;;28.75;24.00;;;;;7.38;72.83;103496.34;5101740;27;45424;-71
2022/01/22 08:22:42;;;;;;;;;38.50;30.75;;;;;7.44;72.84;103503.38;5093388;27;47942;-71
2022/01/22 08:25:09;;;;;;;;;35.75;31.50;;;;;7.44;72.75;103495.53;5105612;27;46061;-71
2022/01/22 08:27:41;;;;;;;;;36.25;26.25;;;;;7.45;72.49;103498.16;5097576;27;45499;-71
2022/01/22 08:30:09;;;;;;;;;35.25;28.00;;;;;7.46;72.63;103499.03;5087295;27;45550;-71
2022/01/22 08:37:47;;;;;;;;;101.75;77.50;;;;;7.54;72.39;103514.00;5104920;27;45489;-70
2022/01/22 08:40:13;;;;;;;;;39.25;33.75;;;;;7.57;72.38;103510.56;5076852;27;45347;-69
2022/01/22 08:42:39;;;;;;;;;35.50;27.75;;;;;7.60;72.43;103513.22;5095682;27;46335;-69
2022/01/22 08:45:05;;;;;;;;;27.00;22.00;;;;;7.57;72.57;103503.59;5105782;27;45541;-69
2022/01/22 08:47:30;;;;;;;;;29.75;25.50;;;;;7.64;72.56;103511.53;5092842;27;45497;-69
2022/01/22 08:49:55;;;;;;;;;29.00;26.75;;;;;7.69;71.99;103521.19;5092418;27;45452;-69
2022/01/22 08:52:25;;;;;;;;;34.25;28.25;;;;;7.74;72.54;103519.53;5093713;27;45524;-69
2022/01/22 08:54:51;;;;;;;;;30.25;27.00;;;;;7.78;72.89;103528.31;5091128;27;45841;-69
2022/01/22 08:57:18;;;;;;;;;28.50;28.25;;;;;7.75;72.61;103512.53;5092758;27;45438;-69
2022/01/22 08:59:43;;;;;;;;;29.00;27.00;;;;;7.78;72.53;103523.94;5091379;27;45485;-69
2022/01/22 09:02:09;;;;;;;;;33.25;25.00;;;;;7.81;72.79;103525.72;5084568;27;45585;-69
2022/01/22 09:04:34;;;;;;;;;33.25;26.75;;;;;7.85;72.51;103532.75;5089919;27;45369;-69
2022/01/22 09:07:00;;;;;;;;;37.50;29.50;;;;;7.85;71.53;103525.78;5092155;27;45533;-69
2022/01/22 09:09:26;;;;;;;;;32.50;25.25;;;;;7.90;72.13;103541.53;5096325;27;45577;-69
2022/01/22 09:11:53;;;;;;;;;37.00;31.00;;;;;7.92;71.49;103542.44;5101173;27;45515;-69
2022/01/22 09:14:19;;;;;;;;;39.50;32.25;;;;;7.95;71.73;103541.59;5092595;27;45383;-69
2022/01/22 09:16:47;;;;;;;;;35.25;27.50;;;;;7.92;71.25;103531.97;5078120;27;45419;-69
2022/01/22 09:19:13;;;;;;;;;39.50;27.00;;;;;7.97;71.29;103530.28;5097770;27;45649;-69
2022/01/22 09:21:46;;;;;;;;;37.75;28.25;;;;;8.01;71.37;103529.47;5094628;27;46508;-69
2022/01/22 09:24:15;;;;;;;;;33.50;27.50;;;;;8.06;71.32;103534.75;5095561;27;45398;-69
2022/01/22 09:26:41;;;;;;;;;37.75;29.75;;;;;8.10;71.16;103539.19;5095678;27;47360;-69
2022/01/22 09:29:07;;;;;;;;;35.25;29.75;;;;;8.12;70.96;103534.84;5096158;27;45280;-69
2022/01/22 09:31:33;;;;;;;;;37.50;28.50;;;;;8.18;70.88;103536.63;5112041;27;47067;-69
2022/01/22 09:34:00;;;;;;;;;34.25;29.25;;;;;8.20;70.99;103545.41;5098917;27;45876;-69
2022/01/22 09:36:27;;;;;;;;;86.75;62.75;;;;;8.26;71.06;103542.88;5100256;27;45565;-70
2022/01/22 09:38:53;;;;;;;;;36.25;29.75;;;;;8.35;71.00;103553.44;5095567;27;45432;-70
2022/01/22 09:41:20;;;;;;;;;33.00;26.75;;;;;8.42;70.65;103551.81;5099593;27;45480;-71
2022/01/22 09:43:45;;;;;;;;;32.75;23.25;;;;;8.45;70.43;103552.69;5078449;27;45976;-69
2022/01/22 09:46:12;;;;;;;;;32.75;27.00;;;;;8.44;70.35;103548.31;5098266;27;45513;-73
2022/01/22 09:48:42;;;;;;;;;34.75;30.50;;;;;8.49;70.03;103548.38;5099568;27;45457;-72
2022/01/22 09:51:08;;;;;;;;;39.25;31.75;;;;;8.55;70.18;103556.31;5094268;27;45497;-72
2022/01/22 09:53:34;;;;;;;;;32.25;28.25;;;;;8.61;70.18;103559.91;5095062;27;45567;-73
2022/01/22 09:56:00;;;;;;;;;36.00;28.00;;;;;8.61;70.03;103544.16;5095537;27;45609;-71
2022/01/22 09:58:25;;;;;;;;;38.25;30.25;;;;;8.62;69.58;103550.28;5097517;27;45398;-74
2022/01/22 10:00:51;;;;;;;;;47.00;30.00;;;;;8.67;69.89;103545.97;5078676;27;47461;-72
2022/01/22 10:03:19;;;;;;;;;37.00;30.75;;;;;8.69;69.68;103545.97;5095213;27;45645;-72
2022/01/22 10:05:44;;;;;;;;;37.75;32.25;;;;;8.76;69.83;103553.03;5094996;27;45464;-71
2022/01/22 10:08:24;;;;;;;;;27.00;25.75;;;;;8.77;69.44;103555.69;5095327;27;45245;-71
2022/01/22 10:10:51;;;;;;;;;34.25;25.50;;;;;8.80;69.42;103557.44;5096979;27;46521;-71
2022/01/22 10:13:37;;;;;;;;;33.00;28.00;;;;;8.85;69.39;103564.47;5095676;27;45943;-71
2022/01/22 10:16:11;;;;;;;;;40.25;30.50;;;;;8.85;69.03;103553.13;5095038;27;45221;-71
2022/01/22 10:18:36;;;;;;;;;73.50;56.00;;;;;8.92;69.38;103561.91;5092971;27;45351;-73
2022/01/22 10:21:07;;;;;;;;;25.25;24.75;;;;;8.93;69.22;103559.31;5095004;27;45446;-72
2022/01/22 10:23:38;;;;;;;;;30.75;26.50;;;;;8.97;68.90;103565.44;5095180;27;45514;-71
2022/01/22 10:26:06;;;;;;;;;33.25;24.25;;;;;8.97;68.69;103566.31;5094677;27;45427;-72
2022/01/22 10:28:45;;;;;;;;;31.00;26.25;;;;;8.98;68.61;103568.13;5095146;27;45465;-71
2022/01/22 10:31:19;;;;;;;;;28.75;24.00;;;;;8.99;68.53;103564.63;5094938;27;46348;-71
2022/01/22 10:34:03;;;;;;;;;29.50;23.50;;;;;9.03;68.67;103571.66;5094137;27;45498;-70
2022/01/22 10:36:28;;;;;;;;;21.25;18.00;;;;;9.04;68.38;103580.41;5094724;27;45324;-71
2022/01/22 10:38:55;;;;;;;;;24.75;21.75;;;;;9.02;68.39;103577.75;5096284;27;45469;-72
2022/01/22 10:41:36;;;;;;;;;31.50;20.75;;;;;9.05;68.26;103585.66;5103628;27;47147;-69
2022/01/22 10:44:02;;;;;;;;;33.75;24.00;;;;;9.07;68.43;103583.91;5094616;27;45392;-72
2022/01/22 10:46:42;;;;;;;;;31.50;26.50;;;;;9.07;68.31;103583.03;5096936;27;45371;-69
2022/01/22 10:49:29;;;;;;;;;29.25;21.50;;;;;9.14;68.22;103577.00;5094305;27;45544;-70
2022/01/22 10:51:57;;;;;;;;;28.00;22.50;;;;;9.19;68.22;103577.91;5093909;27;46672;-70
2022/01/22 10:54:24;;;;;;;;;30.50;24.50;;;;;9.20;67.67;103566.53;5094435;27;45514;-70
2022/01/22 10:56:51;;;;;;;;;32.75;24.75;;;;;9.28;67.66;103561.34;5092446;27;45349;-68
2022/01/22 10:59:19;;;;;;;;;27.00;20.00;;;;;9.32;67.50;103550.00;5097407;27;45561;-68
2022/01/22 11:01:47;;;;;;;;;34.25;27.75;;;;;9.37;67.35;103564.03;5103814;27;45439;-69
2022/01/22 11:04:15;;;;;;;;;32.50;25.50;;;;;9.38;67.37;103556.16;5111629;27;46108;-69
2022/01/22 11:06:50;;;;;;;;;34.00;25.75;;;;;9.40;67.11;103543.09;5093977;27;46296;-68
2022/01/22 11:09:16;;;;;;;;;30.25;21.25;;;;;9.37;66.86;103556.16;5094628;27;45504;-71
2022/01/22 11:11:42;;;;;;;;;90.50;65.00;;;;;9.25;67.19;103538.59;5094023;27;45391;-70
2022/01/22 11:14:10;;;;;;;;;36.75;28.75;;;;;9.34;67.24;103548.25;5094180;27;46009;-70
2022/01/22 11:16:41;;;;;;;;;24.50;19.00;;;;;9.40;67.15;103553.59;5095260;27;45452;-71
2022/01/22 11:19:13;;;;;;;;;24.00;20.00;;;;;9.43;67.51;103550.97;5093945;27;45681;-71
2022/01/22 11:21:44;;;;;;;;;26.50;22.25;;;;;9.39;66.97;103543.91;5075751;27;47258;-71
2022/01/22 11:24:11;;;;;;;;;23.75;19.50;;;;;9.42;67.06;103549.22;5094034;27;45446;-70
2022/01/22 11:26:42;;;;;;;;;29.00;23.25;;;;;9.39;66.51;103554.41;5094082;27;45607;-71
2022/01/22 11:29:08;;;;;;;;;31.50;21.25;;;;;9.32;66.25;103544.75;5099190;27;45354;-69
2022/01/22 11:31:37;;;;;;;;;25.00;21.25;;;;;9.27;66.82;103541.22;5094344;27;46695;-69
2022/01/22 11:34:05;;;;;;;;;27.75;20.75;;;;;9.26;66.37;103549.97;5091837;27;45411;-69
2022/01/22 11:36:43;;;;;;;;;28.00;21.50;;;;;9.23;66.42;103545.56;5091737;27;45432;-69
2022/01/22 11:39:19;;;;;;;;;25.25;23.25;;;;;9.21;66.68;103531.56;5093410;27;45697;-69
2022/01/22 11:41:56;;;;;;;;;35.25;26.25;;;;;9.23;66.35;103536.81;5099139;27;46381;-69
2022/01/22 11:44:34;;;;;;;;;24.50;22.25;;;;;9.24;66.34;103535.94;5060470;27;45507;-69
2022/01/22 11:47:22;;;;;;;;;33.75;26.25;;;;;9.20;66.36;103532.44;5093267;27;45428;-69
2022/01/22 11:50:07;;;;;;;;;29.25;25.00;;;;;9.22;66.65;103540.31;5093185;27;45331;-71
2022/01/22 11:52:36;;;;;;;;;70.75;51.50;;;;;9.24;66.45;103530.69;5095185;27;45505;-70
2022/01/22 11:55:13;;;;;;;;;28.00;25.50;;;;;9.19;66.30;103517.56;5086681;27;45479;-71
2022/01/22 11:57:40;;;;;;;;;28.00;22.25;;;;;9.29;66.46;103523.72;5068241;27;45585;-71
2022/01/22 12:00:27;;;;;;;;;26.50;19.75;;;;;9.35;66.65;103523.81;5091180;27;45500;-71
2022/01/22 12:03:12;;;;;;;;;30.25;23.25;;;;;9.36;66.64;103525.56;5096520;27;46554;-71
2022/01/22 12:05:53;;;;;;;;;34.25;25.00;;;;;9.41;66.25;103534.34;5087898;27;45613;-71
2022/01/22 12:08:19;;;;;;;;;27.00;24.50;;;;;9.42;66.31;103528.22;5075715;27;45527;-71
2022/01/22 12:14:27;;;;;;;;;22.50;19.25;;;;;9.38;66.03;103519.44;5087978;27;45483;-70
2022/01/22 12:16:39;;;;;;;;;26.50;21.00;;;;;9.53;65.94;103516.03;5091818;27;45977;-71
2022/01/22 12:19:25;;;;;;;;;31.75;24.00;;;;;9.55;65.88;103518.66;5104278;27;45471;-69
2022/01/22 12:21:51;;;;;;;;;26.50;19.25;;;;;9.51;65.57;103509.91;5082423;27;45530;-72
2022/01/22 12:24:30;;;;;;;;;32.25;25.25;;;;;9.60;65.54;103509.06;5081961;27;46348;-73
2022/01/22 12:27:00;;;;;;;;;30.75;24.25;;;;;9.66;65.20;103511.75;5092590;27;45924;-69
2022/01/22 12:29:35;;;;;;;;;33.00;25.00;;;;;9.73;65.18;103507.38;5083201;27;45518;-69
2022/01/22 12:32:18;;;;;;;;;23.25;21.75;;;;;9.75;65.39;103492.50;5089337;27;45692;-69
2022/01/22 12:35:18;;;;;;;;;33.25;24.00;;;;;9.81;65.56;103495.16;5096954;27;46534;-71
2022/01/22 12:37:50;;;;;;;;;26.25;22.50;;;;;9.87;64.95;103496.06;5085216;27;46086;-72
2022/01/22 12:40:32;;;;;;;;;32.25;23.75;;;;;9.95;65.30;103501.34;5093186;27;45568;-73
2022/01/22 12:43:05;;;;;;;;;25.00;21.00;;;;;9.99;65.15;103497.88;5094258;27;45532;-72
2022/01/22 12:45:32;;;;;;;;;34.00;24.25;;;;;9.97;65.16;103486.50;5083691;27;45744;-71
2022/01/22 12:47:57;;;;;;;;;30.25;21.50;;;;;10.01;65.11;103479.47;5081114;27;45966;-71
2022/01/22 12:50:29;;;;;;;;;38.50;29.50;;;;;10.05;64.68;103476.88;5104091;27;45391;-72
2022/01/22 12:52:56;;;;;;;;;39.50;34.50;;;;;10.09;64.94;103481.25;5075179;27;45427;-73
2022/01/22 12:55:38;;;;;;;;;33.75;27.50;;;;;10.04;64.75;103477.75;5098319;27;45634;-73